createdAt,value
2019-02-22T00:00:26.469Z,11.30
2019-02-22T00:03:05.509Z,11.30
2019-02-22T00:05:48.211Z,11.30
2019-02-22T00:08:34.984Z,11.30
2019-02-22T00:11:04.356Z,11.30
2019-02-22T00:13:45.145Z,11.30
2019-02-22T00:16:19.679Z,11.30
2019-02-22T00:18:55.878Z,11.30
2019-02-22T00:21:30.809Z,11.40
2019-02-22T00:24:11.848Z,11.30
2019-02-22T00:26:41.662Z,11.30
2019-02-22T00:29:13.680Z,11.30
2019-02-22T00:31:44.284Z,11.30
2019-02-22T00:34:22.192Z,11.30
2019-02-22T00:37:17.214Z,11.30
2019-02-22T00:39:52.832Z,11.30
2019-02-22T00:42:31.478Z,11.30
2019-02-22T00:45:09.385Z,11.30
2019-02-22T00:47:47.440Z,11.30
2019-02-22T00:50:24.049Z,11.30
2019-02-22T00:52:59.772Z,11.30
2019-02-22T00:55:35.007Z,11.40
2019-02-22T00:58:15.472Z,11.40
2019-02-22T01:00:48.865Z,11.40
2019-02-22T01:03:24.720Z,11.40
2019-02-22T01:06:15.786Z,11.40
2019-02-22T01:08:48.107Z,11.40
2019-02-22T01:11:22.762Z,11.40
2019-02-22T01:14:04.305Z,11.40
2019-02-22T01:16:39.175Z,11.40
2019-02-22T01:19:31.715Z,11.40
2019-02-22T01:22:12.097Z,11.40
2019-02-22T01:24:53.928Z,11.30
2019-02-22T01:27:34.149Z,11.30
2019-02-22T01:30:07.658Z,11.30
2019-02-22T01:32:44.044Z,11.30
2019-02-22T01:35:18.297Z,11.30
2019-02-22T01:37:58.133Z,11.30
2019-02-22T01:40:43.055Z,11.30
2019-02-22T01:43:14.454Z,11.30
2019-02-22T01:45:59.119Z,11.40
2019-02-22T01:48:36.879Z,11.40
2019-02-22T01:51:17.659Z,11.50
2019-02-22T01:53:50.663Z,11.50
2019-02-22T01:56:28.565Z,11.50
2019-02-22T01:59:10.907Z,11.50
2019-02-22T02:01:55.022Z,11.60
2019-02-22T02:04:34.662Z,11.60
2019-02-22T02:07:05.091Z,11.60
2019-02-22T02:09:44.692Z,11.60
2019-02-22T02:12:24.582Z,11.60
2019-02-22T02:15:02.361Z,11.60
2019-02-22T02:17:35.264Z,11.60
2019-02-22T02:20:10.677Z,11.60
2019-02-22T02:22:44.605Z,11.60
2019-02-22T02:25:17.135Z,11.60
2019-02-22T02:27:57.528Z,11.50
2019-02-22T02:30:29.405Z,11.50
2019-02-22T02:33:12.841Z,11.50
2019-02-22T02:35:57.517Z,11.50
2019-02-22T02:38:38.470Z,11.50
2019-02-22T02:41:16.573Z,11.50
2019-02-22T02:43:45.738Z,11.50
2019-02-22T02:46:14.218Z,11.50
2019-02-22T02:48:42.971Z,11.50
2019-02-22T02:51:11.761Z,11.60
2019-02-22T02:53:40.377Z,11.60
2019-02-22T02:56:09.139Z,11.60
2019-02-22T02:58:37.582Z,11.50
2019-02-22T03:01:06.398Z,11.50
2019-02-22T03:03:35.045Z,11.60
2019-02-22T03:06:07.881Z,11.60
2019-02-22T03:08:36.876Z,11.50
2019-02-22T03:11:05.279Z,11.60
2019-02-22T03:13:33.853Z,11.60
2019-02-22T03:16:02.255Z,11.60
2019-02-22T03:18:30.923Z,11.70
2019-02-22T03:20:59.438Z,11.70
2019-02-22T03:23:28.564Z,11.70
2019-02-22T03:25:57.368Z,11.70
2019-02-22T03:28:26.234Z,11.70
2019-02-22T03:30:55.253Z,11.80
2019-02-22T03:33:23.678Z,11.80
2019-02-22T03:35:52.398Z,11.80
2019-02-22T03:38:20.835Z,11.80
2019-02-22T03:40:49.237Z,11.80
2019-02-22T03:43:18.174Z,11.80
2019-02-22T03:45:46.853Z,11.80
2019-02-22T03:48:15.622Z,11.80
2019-02-22T03:50:49.782Z,11.80
2019-02-22T03:53:19.860Z,11.80
2019-02-22T03:55:48.354Z,11.80
2019-02-22T03:58:17.222Z,11.80
2019-02-22T04:00:46.003Z,11.80
2019-02-22T04:03:14.723Z,11.80
2019-02-22T04:05:43.325Z,11.80
2019-02-22T04:08:12.062Z,11.80
2019-02-22T04:10:40.953Z,11.80
2019-02-22T04:13:09.364Z,11.80
2019-02-22T04:15:37.815Z,11.70
2019-02-22T04:18:06.612Z,11.80
2019-02-22T04:20:35.592Z,11.70
2019-02-22T04:23:04.506Z,11.70
2019-02-22T04:25:32.918Z,11.70
2019-02-22T04:28:01.406Z,11.70
2019-02-22T04:30:30.338Z,11.70
2019-02-22T04:32:59.139Z,11.70
2019-02-22T04:35:27.555Z,11.70
2019-02-22T04:37:55.983Z,11.70
2019-02-22T04:40:24.666Z,11.70
2019-02-22T04:42:53.105Z,11.70
2019-02-22T04:45:21.536Z,11.70
2019-02-22T04:47:50.345Z,11.70
2019-02-22T04:50:18.760Z,11.70
2019-02-22T04:52:47.221Z,11.70
2019-02-22T04:55:15.969Z,11.70
2019-02-22T04:57:44.487Z,11.70
2019-02-22T05:00:12.962Z,11.70
2019-02-22T05:02:41.908Z,11.70
2019-02-22T05:05:11.788Z,11.70
2019-02-22T05:07:40.204Z,11.80
2019-02-22T05:10:09.007Z,11.70
2019-02-22T05:12:37.470Z,11.70
2019-02-22T05:15:12.576Z,11.70
2019-02-22T05:17:37.315Z,11.70
2019-02-22T05:20:06.619Z,11.70
2019-02-22T05:22:35.402Z,11.80
2019-02-22T05:25:05.690Z,11.80
2019-02-22T05:27:34.509Z,11.80
2019-02-22T05:30:02.915Z,11.80
2019-02-22T05:32:31.664Z,11.80
2019-02-22T05:35:00.346Z,11.80
2019-02-22T05:37:28.884Z,11.80
2019-02-22T05:39:57.301Z,11.70
2019-02-22T05:42:28.518Z,11.80
2019-02-22T05:44:56.207Z,11.70
2019-02-22T05:47:25.015Z,11.70
2019-02-22T05:49:53.709Z,11.70
2019-02-22T05:52:22.154Z,11.70
2019-02-22T05:54:50.860Z,11.60
2019-02-22T05:57:19.742Z,11.60
2019-02-22T05:59:48.431Z,11.60
2019-02-22T06:02:16.844Z,11.60
2019-02-22T06:04:45.698Z,11.60
2019-02-22T06:07:14.752Z,11.60
2019-02-22T06:09:43.325Z,11.60
2019-02-22T06:12:12.063Z,11.60
2019-02-22T06:14:40.955Z,11.60
2019-02-22T06:17:14.649Z,11.70
2019-02-22T06:19:40.063Z,11.70
2019-02-22T06:22:08.652Z,11.70
2019-02-22T06:24:37.131Z,11.70
2019-02-22T06:27:05.815Z,11.70
2019-02-22T06:29:34.463Z,11.70
2019-02-22T06:32:03.202Z,11.70
2019-02-22T06:34:31.903Z,11.70
2019-02-22T06:37:02.153Z,11.70
2019-02-22T06:39:30.710Z,11.70
2019-02-22T06:41:59.561Z,11.70
2019-02-22T06:44:28.024Z,11.70
2019-02-22T06:46:56.505Z,11.70
2019-02-22T06:49:25.363Z,11.70
2019-02-22T06:51:54.111Z,11.70
2019-02-22T06:54:22.795Z,11.70
2019-02-22T06:56:51.241Z,11.70
2019-02-22T06:59:19.654Z,11.70
2019-02-22T07:01:50.060Z,11.70
2019-02-22T07:04:19.296Z,11.70
2019-02-22T07:06:47.711Z,11.70
2019-02-22T07:09:16.116Z,11.70
2019-02-22T07:11:46.662Z,11.70
2019-02-22T07:14:15.343Z,11.70
2019-02-22T07:16:44.254Z,11.70
2019-02-22T07:19:12.927Z,11.70
2019-02-22T07:21:52.148Z,11.80
2019-02-22T07:24:11.690Z,11.70
2019-02-22T07:26:40.638Z,11.70
2019-02-22T07:29:09.042Z,11.70
2019-02-22T07:31:37.774Z,11.70
2019-02-22T07:34:06.566Z,11.70
2019-02-22T07:36:35.362Z,11.80
2019-02-22T07:39:04.954Z,11.70
2019-02-22T07:41:33.362Z,11.80
2019-02-22T07:44:02.141Z,11.80
2019-02-22T07:46:30.848Z,11.80
2019-02-22T07:48:59.587Z,11.80
2019-02-22T07:51:28.002Z,11.80
2019-02-22T07:53:56.518Z,11.80
2019-02-22T07:56:24.958Z,11.80
2019-02-22T07:58:53.400Z,11.80
2019-02-22T08:01:21.815Z,11.90
2019-02-22T08:03:50.513Z,11.90
2019-02-22T08:06:19.315Z,11.90
2019-02-22T08:08:48.584Z,11.90
2019-02-22T08:11:17.359Z,12.00
2019-02-22T08:13:45.793Z,12.00
2019-02-22T08:16:14.238Z,12.00
2019-02-22T08:18:42.673Z,12.00
2019-02-22T08:21:11.467Z,12.00
2019-02-22T08:23:40.006Z,12.00
2019-02-22T08:26:08.859Z,12.10
2019-02-22T08:28:37.664Z,12.10
2019-02-22T08:31:06.196Z,12.10
2019-02-22T08:33:34.908Z,12.10
2019-02-22T08:36:03.317Z,12.10
2019-02-22T08:38:32.086Z,12.10
2019-02-22T08:41:00.495Z,12.10
2019-02-22T08:43:31.813Z,12.10
2019-02-22T08:45:59.388Z,12.10
2019-02-22T08:48:28.154Z,12.10
2019-02-22T08:50:56.848Z,12.10
2019-02-22T08:53:25.825Z,12.10
2019-02-22T08:55:54.539Z,12.10
2019-02-22T08:58:24.683Z,12.20
2019-02-22T09:00:53.159Z,12.20
2019-02-22T09:03:21.592Z,12.30
2019-02-22T09:05:50.030Z,12.30
2019-02-22T09:08:18.479Z,12.30
2019-02-22T09:10:46.890Z,12.30
2019-02-22T09:13:15.719Z,12.30
2019-02-22T09:15:44.508Z,12.30
2019-02-22T09:18:12.934Z,12.40
2019-02-22T09:20:41.455Z,12.40
2019-02-22T09:23:10.191Z,12.50
2019-02-22T09:25:38.687Z,12.50
2019-02-22T09:28:07.125Z,12.50
2019-02-22T09:30:35.792Z,12.60
2019-02-22T09:33:04.635Z,12.70
2019-02-22T09:35:34.846Z,12.70
2019-02-22T09:38:03.524Z,12.80
2019-02-22T09:40:31.980Z,12.90
2019-02-22T09:43:00.863Z,12.90
2019-02-22T09:45:29.305Z,12.90
2019-02-22T09:47:58.121Z,12.90
2019-02-22T09:50:26.922Z,12.90
2019-02-22T09:52:55.358Z,12.90
2019-02-22T09:55:23.852Z,12.90
2019-02-22T09:57:52.585Z,12.90
2019-02-22T10:00:21.451Z,12.90
2019-02-22T10:02:50.336Z,13.00
2019-02-22T10:05:18.754Z,13.00
2019-02-22T10:07:47.514Z,13.00
2019-02-22T10:10:16.091Z,13.00
2019-02-22T10:12:44.793Z,13.00
2019-02-22T10:15:13.295Z,13.00
2019-02-22T10:17:42.053Z,13.10
2019-02-22T10:20:11.106Z,13.10
2019-02-22T10:22:39.517Z,13.10
2019-02-22T10:25:08.533Z,13.10
2019-02-22T10:27:37.076Z,13.20
2019-02-22T10:30:08.751Z,13.20
2019-02-22T10:32:37.531Z,13.20
2019-02-22T10:35:06.874Z,13.20
2019-02-22T10:37:35.635Z,13.30
2019-02-22T10:40:06.268Z,13.40
2019-02-22T10:42:35.138Z,13.50
2019-02-22T10:45:03.948Z,13.60
2019-02-22T10:47:32.636Z,13.60
2019-02-22T10:50:01.412Z,13.70
2019-02-22T10:52:29.817Z,13.80
2019-02-22T10:54:58.266Z,13.80
2019-02-22T10:57:26.946Z,13.90
2019-02-22T10:59:55.642Z,14.00
2019-02-22T11:02:24.325Z,14.00
2019-02-22T11:04:53.105Z,14.00
2019-02-22T11:07:21.516Z,14.00
2019-02-22T11:09:50.267Z,14.10
2019-02-22T11:12:18.678Z,14.10
2019-02-22T11:14:47.435Z,14.10
2019-02-22T11:17:15.878Z,14.10
2019-02-22T11:19:44.611Z,14.10
2019-02-22T11:22:13.402Z,14.10
2019-02-22T11:24:41.824Z,14.10
2019-02-22T11:27:10.258Z,14.10
2019-02-22T11:29:38.661Z,14.10
2019-02-22T11:32:07.109Z,14.10
2019-02-22T11:34:35.516Z,14.20
2019-02-22T11:37:04.718Z,14.20
2019-02-22T11:39:33.491Z,14.30
2019-02-22T11:42:01.931Z,14.30
2019-02-22T11:44:39.875Z,14.40
2019-02-22T11:47:00.685Z,14.40
2019-02-22T11:49:29.562Z,14.50
2019-02-22T11:51:58.058Z,14.50
2019-02-22T11:54:26.533Z,14.50
2019-02-22T11:56:54.994Z,14.50
2019-02-22T11:59:23.550Z,14.50
2019-02-22T12:01:52.670Z,14.40
2019-02-22T12:04:21.383Z,14.40
2019-02-22T12:06:50.141Z,14.40
2019-02-22T12:09:18.835Z,14.50
2019-02-22T12:11:47.410Z,14.40
2019-02-22T12:14:15.898Z,14.40
2019-02-22T12:16:44.330Z,14.40
2019-02-22T12:19:12.818Z,14.40
2019-02-22T12:21:41.544Z,14.40
2019-02-22T12:24:09.949Z,14.50
2019-02-22T12:26:38.460Z,14.60
2019-02-22T12:29:06.871Z,14.80
2019-02-22T12:31:35.330Z,15.00
2019-02-22T12:34:03.815Z,15.10
2019-02-22T12:36:32.258Z,15.20
2019-02-22T12:39:00.671Z,15.30
2019-02-22T12:41:29.107Z,15.30
2019-02-22T12:43:59.874Z,15.20
2019-02-22T12:46:27.977Z,15.20
2019-02-22T12:48:56.635Z,15.00
2019-02-22T12:51:25.352Z,14.90
2019-02-22T12:53:53.770Z,14.80
2019-02-22T12:56:53.217Z,14.80
2019-02-22T12:58:52.646Z,14.70
2019-02-22T13:01:21.262Z,14.70
2019-02-22T13:03:49.674Z,14.60
2019-02-22T13:06:18.340Z,14.50
2019-02-22T13:08:46.751Z,14.50
2019-02-22T13:11:15.664Z,14.40
2019-02-22T13:13:44.257Z,14.40
2019-02-22T13:16:13.027Z,14.30
2019-02-22T13:18:41.721Z,14.20
2019-02-22T13:21:10.362Z,14.20
2019-02-22T13:23:39.034Z,14.10
2019-02-22T13:26:07.701Z,14.10
2019-02-22T13:28:36.434Z,14.00
2019-02-22T13:31:04.963Z,13.90
2019-02-22T13:33:33.818Z,13.90
2019-02-22T13:36:02.268Z,13.80
2019-02-22T13:38:31.186Z,13.80
2019-02-22T13:40:59.603Z,13.80
2019-02-22T13:43:28.468Z,13.80
2019-02-22T13:45:57.350Z,13.80
2019-02-22T13:48:26.430Z,13.70
2019-02-22T13:50:55.265Z,13.80
2019-02-22T13:53:23.957Z,13.80
2019-02-22T13:55:52.425Z,13.80
2019-02-22T13:58:22.219Z,13.80
2019-02-22T14:00:50.937Z,13.80
2019-02-22T14:03:19.426Z,13.90
2019-02-22T14:05:47.885Z,13.90
2019-02-22T14:08:16.289Z,13.90
2019-02-22T14:10:44.739Z,13.90
2019-02-22T14:13:13.496Z,13.90
2019-02-22T14:15:43.919Z,13.90
2019-02-22T14:18:12.325Z,13.80
2019-02-22T14:20:41.108Z,13.80
2019-02-22T14:23:09.802Z,13.80
2019-02-22T14:25:38.331Z,13.80
2019-02-22T14:28:07.038Z,13.80
2019-02-22T14:30:35.482Z,13.80
2019-02-22T14:33:03.893Z,13.80
2019-02-22T14:35:32.499Z,13.70
2019-02-22T14:38:00.914Z,13.70
2019-02-22T14:40:29.433Z,13.70
2019-02-22T14:42:57.842Z,13.70
2019-02-22T14:45:26.274Z,13.70
2019-02-22T14:47:54.986Z,13.80
2019-02-22T14:50:23.665Z,13.70
2019-02-22T14:52:52.165Z,13.70
2019-02-22T14:55:20.941Z,13.70
2019-02-22T14:57:49.632Z,13.70
2019-02-22T15:00:21.688Z,13.70
2019-02-22T15:02:50.381Z,13.60
2019-02-22T15:05:19.167Z,13.70
2019-02-22T15:07:49.182Z,13.70
2019-02-22T15:10:18.724Z,13.60
2019-02-22T15:12:47.684Z,13.60
2019-02-22T15:15:18.161Z,13.60
2019-02-22T15:17:48.248Z,13.60
2019-02-22T15:20:16.915Z,13.60
2019-02-22T15:22:45.362Z,13.60
2019-02-22T15:25:15.960Z,13.60
2019-02-22T15:27:44.716Z,13.60
2019-02-22T15:30:15.370Z,13.50
2019-02-22T15:32:44.023Z,13.60
2019-02-22T15:35:36.396Z,13.60
2019-02-22T15:38:04.812Z,13.50
2019-02-22T15:40:33.555Z,13.50
2019-02-22T15:43:02.056Z,13.50
2019-02-22T15:45:30.918Z,13.40
2019-02-22T15:47:59.638Z,13.50
2019-02-22T15:50:28.379Z,13.50
2019-02-22T15:52:56.786Z,13.40
2019-02-22T15:55:25.230Z,13.40
2019-02-22T15:57:53.707Z,13.40
2019-02-22T16:00:31.560Z,13.40
2019-02-22T16:03:00.339Z,13.40
2019-02-22T16:05:36.498Z,13.40
2019-02-22T16:08:07.426Z,13.30
2019-02-22T16:10:35.587Z,13.40
2019-02-22T16:13:04.547Z,13.40
2019-02-22T16:15:33.375Z,13.30
2019-02-22T16:18:02.035Z,13.30
2019-02-22T16:20:30.648Z,13.40
2019-02-22T16:22:59.090Z,13.40
2019-02-22T16:25:27.584Z,13.30
2019-02-22T16:27:56.064Z,13.30
2019-02-22T16:30:25.845Z,13.40
2019-02-22T16:32:54.370Z,13.40
2019-02-22T16:35:22.771Z,13.30
2019-02-22T16:37:51.537Z,13.40
2019-02-22T16:40:20.208Z,13.30
2019-02-22T16:42:48.998Z,13.40
2019-02-22T16:45:17.412Z,13.30
2019-02-22T16:47:45.861Z,13.30
2019-02-22T16:50:14.955Z,13.30
2019-02-22T16:52:45.227Z,13.30
2019-02-22T16:55:17.051Z,13.20
2019-02-22T16:57:45.486Z,13.30
2019-02-22T17:00:16.367Z,13.20
2019-02-22T17:02:44.791Z,13.20
2019-02-22T17:05:15.980Z,13.20
2019-02-22T17:07:44.881Z,13.20
2019-02-22T17:10:13.767Z,13.20
2019-02-22T17:12:42.757Z,13.10
2019-02-22T17:15:12.791Z,13.20
2019-02-22T17:17:41.415Z,13.10
2019-02-22T17:20:12.481Z,13.10
2019-02-22T17:22:40.978Z,13.10
2019-02-22T17:25:15.307Z,13.10
2019-02-22T17:27:43.759Z,13.10
2019-02-22T17:30:20.388Z,13.10
2019-02-22T17:32:49.542Z,13.10
2019-02-22T17:35:17.945Z,13.10
2019-02-22T17:37:46.387Z,13.00
2019-02-22T17:40:21.220Z,13.00
2019-02-22T17:42:49.910Z,13.00
2019-02-22T17:45:18.762Z,13.00
2019-02-22T17:47:47.486Z,13.00
2019-02-22T17:50:15.946Z,13.00
2019-02-22T17:52:44.659Z,12.90
2019-02-22T17:55:13.185Z,12.90
2019-02-22T17:57:41.930Z,12.90
2019-02-22T18:00:16.997Z,12.90
2019-02-22T18:02:45.486Z,12.90
2019-02-22T18:05:14.332Z,12.90
2019-02-22T18:07:43.112Z,12.90
2019-02-22T18:10:12.307Z,12.90
2019-02-22T18:12:41.164Z,12.90
2019-02-22T18:15:11.934Z,12.90
2019-02-22T18:17:42.453Z,12.80
2019-02-22T18:20:11.156Z,12.80
2019-02-22T18:22:39.940Z,12.80
2019-02-22T18:25:09.669Z,12.80
2019-02-22T18:27:38.427Z,12.80
2019-02-22T18:30:10.434Z,12.70
2019-02-22T18:32:39.174Z,12.70
2019-02-22T18:35:08.604Z,12.60
2019-02-22T18:37:37.456Z,12.60
2019-02-22T18:40:11.724Z,12.70
2019-02-22T18:42:40.210Z,12.60
2019-02-22T18:45:10.186Z,12.60
2019-02-22T18:47:38.700Z,12.60
2019-02-22T18:50:11.580Z,12.50
2019-02-22T18:52:39.994Z,12.50
2019-02-22T18:55:11.496Z,12.50
2019-02-22T18:57:40.250Z,12.50
2019-02-22T19:00:15.916Z,12.40
2019-02-22T19:02:44.352Z,12.40
2019-02-22T19:05:13.198Z,12.30
2019-02-22T19:07:42.264Z,12.30
2019-02-22T19:10:15.090Z,12.30
2019-02-22T19:12:43.520Z,12.20
2019-02-22T19:15:13.911Z,12.20
2019-02-22T19:17:42.644Z,12.20
2019-02-22T19:20:19.527Z,12.10
2019-02-22T19:22:48.314Z,12.00
2019-02-22T19:25:17.170Z,12.00
2019-02-22T19:27:46.510Z,12.00
2019-02-22T19:30:17.775Z,12.00
2019-02-22T19:32:46.203Z,11.90
2019-02-22T19:35:14.906Z,11.90
2019-02-22T19:37:43.407Z,11.80
2019-02-22T19:40:15.016Z,11.80
2019-02-22T19:42:43.728Z,11.80
2019-02-22T19:45:12.245Z,11.70
2019-02-22T19:47:42.107Z,11.70
2019-02-22T19:50:13.801Z,11.60
2019-02-22T19:52:42.675Z,11.60
2019-02-22T19:55:13.253Z,11.60
2019-02-22T19:57:41.986Z,11.60
2019-02-22T20:00:15.899Z,11.50
2019-02-22T20:02:44.466Z,11.50
2019-02-22T20:05:14.178Z,11.40
2019-02-22T20:07:42.881Z,11.40
2019-02-22T20:10:17.778Z,11.40
2019-02-22T20:12:44.358Z,11.30
2019-02-22T20:15:15.265Z,11.30
2019-02-22T20:17:53.023Z,11.30
2019-02-22T20:20:18.215Z,11.20
2019-02-22T20:22:47.012Z,11.20
2019-02-22T20:25:15.956Z,11.10
2019-02-22T20:27:44.373Z,11.10
2019-02-22T20:30:19.429Z,11.10
2019-02-22T20:32:48.292Z,11.10
2019-02-22T20:35:29.661Z,11.00
2019-02-22T20:37:58.076Z,11.00
2019-02-22T20:40:27.142Z,10.90
2019-02-22T20:42:55.906Z,10.90
2019-02-22T20:45:24.708Z,10.80
2019-02-22T20:48:04.196Z,10.80
2019-02-22T20:50:23.728Z,10.80
2019-02-22T20:52:52.500Z,10.70
2019-02-22T20:55:20.933Z,10.70
2019-02-22T20:57:49.678Z,10.60
2019-02-22T21:00:26.619Z,10.60
2019-02-22T21:02:55.373Z,10.60
2019-02-22T21:05:24.140Z,10.60
2019-02-22T21:07:52.905Z,10.50
2019-02-22T21:10:22.851Z,10.50
2019-02-22T21:12:51.697Z,10.40
2019-02-22T21:15:20.119Z,10.30
2019-02-22T21:17:48.804Z,10.30
2019-02-22T21:20:22.047Z,10.30
2019-02-22T21:22:50.532Z,10.30
2019-02-22T21:25:19.258Z,10.30
2019-02-22T21:27:47.742Z,10.20
2019-02-22T21:30:18.110Z,10.20
2019-02-22T21:32:46.588Z,10.20
2019-02-22T21:35:15.078Z,10.20
2019-02-22T21:37:44.588Z,10.20
2019-02-22T21:40:14.108Z,10.20
2019-02-22T21:42:42.555Z,10.10
2019-02-22T21:45:17.913Z,10.10
2019-02-22T21:47:54.435Z,10.00
2019-02-22T21:50:17.748Z,10.00
2019-02-22T21:52:46.676Z,10.00
2019-02-22T21:55:16.351Z,9.90
2019-02-22T21:57:44.801Z,9.90
2019-02-22T22:00:19.478Z,9.90
2019-02-22T22:02:47.932Z,9.80
2019-02-22T22:05:16.330Z,9.80
2019-02-22T22:07:44.777Z,9.80
2019-02-22T22:10:13.566Z,9.80
2019-02-22T22:12:42.367Z,9.70
2019-02-22T22:15:14.979Z,9.70
2019-02-22T22:17:43.719Z,9.70
2019-02-22T22:20:12.324Z,9.70
2019-02-22T22:22:40.922Z,9.70
2019-02-22T22:25:13.670Z,9.60
2019-02-22T22:27:42.662Z,9.70
2019-02-22T22:30:17.723Z,9.60
2019-02-22T22:32:46.159Z,9.60
2019-02-22T22:35:16.215Z,9.60
2019-02-22T22:37:44.779Z,9.50
2019-02-22T22:40:13.569Z,9.50
2019-02-22T22:42:42.375Z,9.50
2019-02-22T22:45:15.614Z,9.40
2019-02-22T22:47:44.481Z,9.40
2019-02-22T22:50:15.470Z,9.40
2019-02-22T22:52:44.295Z,9.40
2019-02-22T22:55:13.071Z,9.40
2019-02-22T22:57:41.847Z,9.30
2019-02-22T23:00:51.750Z,9.30
2019-02-22T23:03:21.590Z,9.30
2019-02-22T23:05:50.432Z,9.30
2019-02-22T23:08:19.434Z,9.20
2019-02-22T23:10:48.170Z,9.20
2019-02-22T23:13:16.724Z,9.20
2019-02-22T23:15:45.572Z,9.10
2019-02-22T23:18:14.343Z,9.10
2019-02-22T23:20:42.773Z,9.10
2019-02-22T23:23:11.615Z,9.10
2019-02-22T23:25:40.203Z,9.10
2019-02-22T23:28:08.695Z,9.10
2019-02-22T23:30:37.455Z,9.00
2019-02-22T23:33:06.491Z,9.00
2019-02-22T23:35:35.338Z,9.00
2019-02-22T23:38:03.771Z,9.00
2019-02-22T23:40:32.263Z,8.90
2019-02-22T23:43:00.927Z,8.90
2019-02-22T23:45:29.335Z,8.80
2019-02-22T23:47:57.784Z,8.80
2019-02-22T23:50:26.545Z,8.80
2019-02-22T23:52:55.303Z,8.80
2019-02-22T23:55:23.715Z,8.70
2019-02-22T23:57:52.479Z,8.70
